world map with INV marked

INV - Airport

This information may not be accurate or current and is not valid for navigation or flight planning. No warranty of fitness for any purpose is made or implied.

flag of Scotlandflag of United Kingdom

Donate via PayPal

Additional information is available on the NEW Great Circle Mapper

Location
City:  Inverness, Inverness, Scotland, United Kingdom
ICAO / IATA:EGPE / INV

Details
Type:Airport (Aerodrome, Airfield)
Use:Public/Civil
Latitude:57°32'33"N (57.542500)
Longitude:4°02'51"W (-4.047499)
Elevation:31 ft (9 m)
Runways:2
Longest:9491 × 151 ft (2893 × 46 m)

Time
Timezone:UTC+0 (DST+3)
Local Time:

Weather
METAR:EGPE  041350Z 24015KT 9999 FEW022 06/02 Q1009

Related Locations
Nearby:
Farthest:SZS: 11625 mi / 18708 km
Ryan's Creek, Stewart Island, STL, NZ

Find:

   beyond  
but within

Other Information
Maps:
Links:
Sources:

  

Airport Diagram

Airport diagram for INV

Airport diagram PDF

 


Great Circle Mapper   Great Circle Mapper
Great Circle Mapper FAQ   Great Circle Mapper FAQ
  Karl's Home Page
KLSē   KLSē Home
   GC on Facebook
Airlines of the World   Airlines of the World
Donate via PayPal


Copyright © 2004-2019, Karl L. Swartz. All rights reserved.
All trademarks mentioned herein belong to their respective owners.

Please see credits for attribution and copyright information.

Karl Swartz <karl@kls2.com>
  Powered by FreeBSD
Valid HTML 4.01!
Labeled with ICRA
hCard Microformat
Geo Microformat